createdAt,value
2018-07-04T00:00:08.537Z,5.77
2018-07-04T00:02:48.713Z,4.97
2018-07-04T00:05:28.883Z,5.53
2018-07-04T00:08:09.391Z,6.30
2018-07-04T00:10:49.345Z,5.83
2018-07-04T00:13:29.503Z,5.20
2018-07-04T00:16:09.654Z,5.43
2018-07-04T00:18:49.653Z,6.00
2018-07-04T00:21:30.681Z,5.37
2018-07-04T00:24:10.768Z,5.30
2018-07-04T00:26:50.990Z,5.30
2018-07-04T00:29:30.772Z,6.30
2018-07-04T00:32:10.800Z,5.87
2018-07-04T00:34:50.868Z,5.47
2018-07-04T00:37:30.882Z,5.50
2018-07-04T00:40:04.755Z,5.90
2018-07-04T00:42:44.660Z,5.65
2018-07-04T00:45:24.532Z,5.62
2018-07-04T00:48:04.277Z,5.65
2018-07-04T00:50:44.136Z,5.90
2018-07-04T00:53:24.074Z,5.28
2018-07-04T00:56:03.849Z,6.00
2018-07-04T00:58:43.710Z,6.43
2018-07-04T01:01:23.483Z,5.33
2018-07-04T01:04:03.651Z,6.90
2018-07-04T01:06:43.537Z,5.65
2018-07-04T01:09:23.365Z,6.22
2018-07-04T01:12:03.209Z,5.95
2018-07-04T01:14:43.230Z,6.37
2018-07-04T01:17:23.196Z,7.87
2018-07-04T01:19:57.129Z,6.20
2018-07-04T01:22:37.020Z,6.30
2018-07-04T01:25:17.028Z,7.28
2018-07-04T01:27:57.053Z,7.30
2018-07-04T01:30:36.973Z,6.25
2018-07-04T01:33:16.979Z,7.83
2018-07-04T01:35:57.048Z,6.15
2018-07-04T01:38:36.890Z,6.33
2018-07-04T01:41:16.667Z,6.72
2018-07-04T01:43:56.474Z,6.37
2018-07-04T01:46:36.469Z,7.20
2018-07-04T01:49:16.335Z,6.60
2018-07-04T01:51:57.155Z,7.40
2018-07-04T01:54:37.015Z,6.92
2018-07-04T01:57:11.211Z,6.72
2018-07-04T01:59:51.174Z,7.00
2018-07-04T02:02:31.077Z,7.97
2018-07-04T02:05:11.057Z,7.30
2018-07-04T02:07:50.900Z,7.28
2018-07-04T02:10:31.863Z,7.08
2018-07-04T02:13:12.621Z,7.28
2018-07-04T02:15:52.713Z,7.28
2018-07-04T02:18:32.968Z,7.15
2018-07-04T02:21:12.999Z,7.62
2018-07-04T02:23:53.514Z,8.28
2018-07-04T02:26:27.669Z,8.05
2018-07-04T02:29:07.478Z,7.70
2018-07-04T02:31:47.459Z,8.08
2018-07-04T02:34:27.374Z,7.35
2018-07-04T02:37:08.962Z,8.63
2018-07-04T02:39:48.744Z,8.35
2018-07-04T02:42:28.516Z,8.35
2018-07-04T02:45:08.493Z,8.90
2018-07-04T02:47:48.154Z,8.45
2018-07-04T02:50:28.102Z,7.97
2018-07-04T02:53:07.912Z,8.33
2018-07-04T02:55:47.906Z,9.10
2018-07-04T02:58:27.840Z,9.35
2018-07-04T03:01:08.077Z,8.30
2018-07-04T03:03:48.574Z,9.05
2018-07-04T03:06:28.606Z,8.85
2018-07-04T03:09:08.596Z,9.58
2018-07-04T03:11:49.178Z,8.55
2018-07-04T03:14:29.308Z,10.70
2018-07-04T03:17:09.167Z,9.63
2018-07-04T03:19:49.325Z,9.98
2018-07-04T03:22:29.129Z,11.05
2018-07-04T03:25:08.938Z,10.35
2018-07-04T03:27:48.767Z,8.95
2018-07-04T03:30:28.604Z,9.15
2018-07-04T03:33:08.485Z,9.43
2018-07-04T03:35:48.405Z,9.20
2018-07-04T03:38:28.203Z,9.18
2018-07-04T03:41:08.153Z,9.50
2018-07-04T03:43:48.042Z,8.98
2018-07-04T03:46:28.149Z,11.57
2018-07-04T03:49:08.237Z,8.53
2018-07-04T03:51:48.116Z,11.57
2018-07-04T03:54:28.013Z,10.70
2018-07-04T03:57:07.830Z,9.45
2018-07-04T03:59:47.681Z,9.85
2018-07-04T04:02:27.819Z,10.32
2018-07-04T04:05:07.838Z,10.00
2018-07-04T04:07:47.804Z,9.23
2018-07-04T04:10:27.556Z,8.40
2018-07-04T04:13:07.381Z,10.20
2018-07-04T04:15:47.255Z,9.45
2018-07-04T04:18:27.024Z,9.90
2018-07-04T04:21:07.135Z,8.40
2018-07-04T04:23:47.257Z,10.10
2018-07-04T04:26:27.212Z,9.65
2018-07-04T04:29:07.053Z,9.50
2018-07-04T04:31:46.863Z,9.13
2018-07-04T04:34:26.743Z,9.88
2018-07-04T04:37:06.502Z,8.55
2018-07-04T04:39:46.526Z,8.25
2018-07-04T04:42:26.580Z,7.70
2018-07-04T04:45:06.683Z,7.55
2018-07-04T04:47:46.531Z,7.92
2018-07-04T04:50:26.618Z,9.13
2018-07-04T04:53:06.471Z,9.55
2018-07-04T04:55:46.226Z,8.73
2018-07-04T04:58:26.569Z,9.18
2018-07-04T05:01:06.451Z,8.78
2018-07-04T05:03:46.625Z,7.92
2018-07-04T05:06:26.423Z,10.00
2018-07-04T05:09:00.451Z,7.87
2018-07-04T05:11:40.317Z,8.78
2018-07-04T05:14:20.108Z,8.73
2018-07-04T05:17:00.116Z,10.10
2018-07-04T05:19:40.042Z,9.98
2018-07-04T05:22:19.975Z,9.30
2018-07-04T05:24:59.924Z,10.08
2018-07-04T05:27:39.783Z,9.85
2018-07-04T05:30:19.821Z,9.25
2018-07-04T05:32:59.893Z,9.13
2018-07-04T05:35:33.905Z,8.65
2018-07-04T05:38:13.948Z,8.93
2018-07-04T05:40:53.927Z,9.90
2018-07-04T05:43:33.830Z,7.67
2018-07-04T05:46:13.778Z,8.68
2018-07-04T05:48:53.882Z,9.27
2018-07-04T05:51:33.699Z,8.13
2018-07-04T05:54:13.510Z,8.00
2018-07-04T05:56:53.693Z,9.50
2018-07-04T05:59:33.563Z,6.83
2018-07-04T06:02:13.586Z,6.67
2018-07-04T06:04:53.451Z,7.63
2018-07-04T06:07:27.975Z,7.63
2018-07-04T06:10:08.078Z,7.67
2018-07-04T06:12:47.981Z,7.47
2018-07-04T06:15:27.758Z,11.70
2018-07-04T06:18:07.659Z,7.07
2018-07-04T06:20:47.590Z,7.10
2018-07-04T06:23:27.479Z,7.07
2018-07-04T06:26:07.307Z,8.17
2018-07-04T06:28:41.081Z,6.97
2018-07-04T06:31:20.945Z,6.90
2018-07-04T06:34:00.895Z,7.13
2018-07-04T06:36:40.674Z,7.03
2018-07-04T06:39:08.195Z,7.93
2018-07-04T06:41:35.627Z,7.07
2018-07-04T06:44:03.041Z,6.93
2018-07-04T06:46:30.490Z,10.07
2018-07-04T06:48:57.977Z,8.50
2018-07-04T06:51:25.460Z,8.50
2018-07-04T06:53:53.146Z,7.23
2018-07-04T06:56:20.693Z,7.10
2018-07-04T06:58:48.235Z,7.13
2018-07-04T07:01:15.710Z,6.23
2018-07-04T07:03:55.658Z,6.83
2018-07-04T07:06:35.473Z,6.43
2018-07-04T07:09:15.503Z,6.73
2018-07-04T07:11:55.509Z,6.20
2018-07-04T07:14:35.321Z,7.30
2018-07-04T07:17:15.188Z,6.47
2018-07-04T07:19:55.161Z,5.40
2018-07-04T07:22:35.050Z,6.57
2018-07-04T07:25:15.021Z,6.70
2018-07-04T07:27:54.854Z,6.97
2018-07-04T07:30:34.670Z,7.10
2018-07-04T07:33:14.505Z,7.43
2018-07-04T07:35:54.382Z,5.77
2018-07-04T07:38:34.260Z,6.80
2018-07-04T07:41:14.070Z,6.57
2018-07-04T07:43:54.138Z,7.27
2018-07-04T07:46:34.330Z,7.03
2018-07-04T07:49:14.106Z,4.97
2018-07-04T07:51:54.224Z,5.77
2018-07-04T07:54:34.080Z,5.63
2018-07-04T07:57:14.099Z,6.50
2018-07-04T07:59:54.146Z,5.70
2018-07-04T08:02:34.698Z,4.90
2018-07-04T08:05:14.558Z,5.23
2018-07-04T08:07:54.557Z,5.40
2018-07-04T08:10:34.335Z,7.13
2018-07-04T08:13:14.357Z,5.47
2018-07-04T08:15:54.180Z,5.73
2018-07-04T08:18:34.162Z,4.90
2018-07-04T08:21:14.120Z,5.93
2018-07-04T08:23:54.060Z,4.53
2018-07-04T08:26:33.971Z,4.97
2018-07-04T08:29:13.896Z,5.43
2018-07-04T08:31:54.009Z,5.37
2018-07-04T08:34:34.026Z,5.17
2018-07-04T08:37:14.009Z,5.50
2018-07-04T08:39:54.301Z,5.40
2018-07-04T08:42:34.333Z,5.50
2018-07-04T08:45:14.143Z,4.43
2018-07-04T08:47:54.089Z,5.03
2018-07-04T08:50:34.215Z,4.63
2018-07-04T08:53:14.150Z,5.00
2018-07-04T08:55:53.832Z,5.20
2018-07-04T08:58:33.815Z,4.97
2018-07-04T09:01:13.602Z,5.17
2018-07-04T09:03:53.524Z,5.13
2018-07-04T09:06:33.359Z,4.23
2018-07-04T09:09:13.152Z,5.50
2018-07-04T09:11:53.255Z,6.40
2018-07-04T09:14:33.094Z,5.60
2018-07-04T09:17:13.087Z,4.50
2018-07-04T09:19:53.293Z,3.53
2018-07-04T09:22:32.810Z,4.07
2018-07-04T09:25:12.806Z,4.60
2018-07-04T09:27:52.514Z,4.17
2018-07-04T09:30:32.573Z,4.40
2018-07-04T09:33:12.644Z,3.70
2018-07-04T09:35:52.418Z,3.67
2018-07-04T09:38:32.450Z,3.53
2018-07-04T09:41:12.173Z,4.20
2018-07-04T09:43:52.222Z,3.90
2018-07-04T09:46:32.606Z,4.17
2018-07-04T09:49:12.457Z,3.40
2018-07-04T09:51:52.271Z,4.20
2018-07-04T09:54:32.212Z,4.40
2018-07-04T09:57:11.999Z,4.73
2018-07-04T09:59:51.711Z,4.23
2018-07-04T10:02:31.690Z,5.20
2018-07-04T10:05:11.544Z,3.70
2018-07-04T10:07:51.348Z,3.90
2018-07-04T10:10:31.164Z,4.80
2018-07-04T10:13:10.991Z,4.87
2018-07-04T10:15:50.830Z,4.23
2018-07-04T10:18:30.666Z,5.07
2018-07-04T10:21:10.645Z,5.13
2018-07-04T10:23:50.379Z,4.20
2018-07-04T10:26:30.309Z,3.77
2018-07-04T10:29:10.200Z,4.30
2018-07-04T10:31:50.208Z,4.40
2018-07-04T10:34:30.049Z,3.87
2018-07-04T10:37:10.321Z,4.17
2018-07-04T10:39:50.414Z,3.73
2018-07-04T10:42:30.359Z,3.37
2018-07-04T10:45:10.402Z,4.07
2018-07-04T10:47:50.232Z,3.67
2018-07-04T10:50:30.059Z,3.57
2018-07-04T10:53:09.922Z,3.23
2018-07-04T10:55:49.941Z,3.23
2018-07-04T10:58:29.831Z,3.53
2018-07-04T11:01:09.794Z,3.77
2018-07-04T11:03:49.793Z,4.00
2018-07-04T11:06:29.680Z,4.23
2018-07-04T11:09:09.816Z,3.20
2018-07-04T11:11:49.777Z,4.63
2018-07-04T11:14:29.565Z,3.20
2018-07-04T11:17:10.021Z,4.40
2018-07-04T11:19:49.841Z,6.73
2018-07-04T11:22:29.778Z,5.73
2018-07-04T11:25:09.683Z,4.10
2018-07-04T11:27:49.443Z,4.20
2018-07-04T11:30:29.394Z,5.23
2018-07-04T11:33:09.631Z,5.30
2018-07-04T11:35:49.523Z,3.90
2018-07-04T11:38:29.361Z,4.20
2018-07-04T11:41:09.489Z,4.57
2018-07-04T11:43:43.408Z,4.00
2018-07-04T11:46:10.878Z,3.20
2018-07-04T11:48:38.392Z,3.07
2018-07-04T11:51:05.844Z,2.63
2018-07-04T11:53:33.313Z,3.30
2018-07-04T11:56:00.745Z,3.50
2018-07-04T11:58:28.217Z,3.50
2018-07-04T12:00:55.696Z,3.90
2018-07-04T12:03:23.812Z,3.57
2018-07-04T12:06:04.445Z,3.93
2018-07-04T12:08:32.001Z,4.30
2018-07-04T12:10:59.485Z,3.70
2018-07-04T12:13:27.941Z,4.40
2018-07-04T12:15:55.463Z,5.30
2018-07-04T12:18:23.374Z,3.90
2018-07-04T12:20:51.111Z,4.00
2018-07-04T12:23:18.599Z,3.40
2018-07-04T12:25:46.329Z,4.47
2018-07-04T12:28:13.892Z,4.50
2018-07-04T12:30:41.458Z,3.83
2018-07-04T12:33:09.013Z,3.10
2018-07-04T12:35:36.754Z,3.90
2018-07-04T12:38:04.457Z,3.90
2018-07-04T12:40:32.943Z,3.57
2018-07-04T12:43:00.410Z,4.50
2018-07-04T12:45:27.926Z,4.33
2018-07-04T12:47:55.439Z,3.70
2018-07-04T12:50:28.280Z,4.33
2018-07-04T12:52:55.969Z,4.20
2018-07-04T12:55:38.218Z,4.87
2018-07-04T12:58:19.990Z,3.33
2018-07-04T13:01:00.047Z,3.33
2018-07-04T13:03:39.958Z,3.30
2018-07-04T13:06:19.840Z,3.37
2018-07-04T13:08:59.862Z,4.00
2018-07-04T13:11:39.773Z,4.10
2018-07-04T13:14:19.862Z,3.30
2018-07-04T13:16:59.775Z,4.10
2018-07-04T13:19:39.760Z,4.17
2018-07-04T13:22:19.576Z,4.77
2018-07-04T13:24:59.494Z,3.23
2018-07-04T13:27:39.511Z,3.60
2018-07-04T13:30:19.369Z,3.97
2018-07-04T13:32:59.505Z,4.20
2018-07-04T13:35:39.328Z,4.00
2018-07-04T13:38:19.259Z,3.73
2018-07-04T13:40:59.349Z,4.30
2018-07-04T13:43:39.406Z,3.07
2018-07-04T13:46:19.526Z,3.10
2018-07-04T13:48:59.419Z,3.40
2018-07-04T13:51:39.315Z,3.70
2018-07-04T13:54:19.287Z,3.30
2018-07-04T13:56:59.717Z,3.57
2018-07-04T13:59:39.766Z,4.73
2018-07-04T14:02:19.587Z,4.20
2018-07-04T14:04:59.533Z,3.73
2018-07-04T14:07:41.239Z,3.60
2018-07-04T14:10:21.200Z,3.47
2018-07-04T14:13:01.546Z,3.43
2018-07-04T14:15:41.572Z,3.30
2018-07-04T14:18:21.602Z,3.30
2018-07-04T14:21:01.671Z,3.73
2018-07-04T14:23:42.128Z,3.07
2018-07-04T14:26:21.998Z,2.97
2018-07-04T14:29:02.219Z,4.80
2018-07-04T14:31:43.646Z,3.37
2018-07-04T14:34:24.363Z,3.60
2018-07-04T14:37:04.033Z,3.43
2018-07-04T14:39:43.896Z,3.20
2018-07-04T14:42:23.696Z,4.40
2018-07-04T14:45:03.727Z,4.00
2018-07-04T14:47:43.949Z,4.17
2018-07-04T14:50:23.699Z,4.43
2018-07-04T14:53:03.612Z,4.17
2018-07-04T14:55:43.933Z,4.13
2018-07-04T14:58:23.714Z,5.17
2018-07-04T15:01:03.683Z,3.77
2018-07-04T15:03:43.485Z,4.30
2018-07-04T15:06:23.252Z,2.77
2018-07-04T15:09:03.150Z,3.77
2018-07-04T15:11:43.120Z,3.00
2018-07-04T15:14:22.998Z,3.20
2018-07-04T15:17:02.778Z,2.50
2018-07-04T15:19:42.796Z,3.17
2018-07-04T15:22:22.519Z,3.60
2018-07-04T15:25:02.499Z,4.03
2018-07-04T15:27:42.419Z,3.40
2018-07-04T15:30:22.456Z,3.50
2018-07-04T15:33:02.648Z,4.93
2018-07-04T15:35:42.714Z,3.83
2018-07-04T15:38:22.680Z,3.23
2018-07-04T15:41:02.715Z,3.60
2018-07-04T15:43:42.983Z,4.07
2018-07-04T15:46:23.009Z,3.67
2018-07-04T15:49:02.899Z,4.53
2018-07-04T15:51:43.069Z,4.53
2018-07-04T15:54:23.082Z,4.80
2018-07-04T15:57:02.848Z,5.13
2018-07-04T15:59:42.550Z,5.87
2018-07-04T16:02:22.457Z,4.83
2018-07-04T16:05:02.202Z,4.73
2018-07-04T16:07:41.999Z,4.47
2018-07-04T16:10:21.987Z,4.77
2018-07-04T16:13:01.835Z,5.40
2018-07-04T16:15:42.906Z,5.03
2018-07-04T16:18:22.976Z,5.87
2018-07-04T16:21:02.959Z,5.10
2018-07-04T16:23:43.046Z,6.20
2018-07-04T16:26:23.177Z,5.23
2018-07-04T16:29:03.332Z,5.23
2018-07-04T16:31:42.909Z,4.93
2018-07-04T16:34:22.915Z,5.60
2018-07-04T16:37:02.799Z,5.50
2018-07-04T16:39:42.686Z,4.53
2018-07-04T16:42:22.620Z,5.10
2018-07-04T16:45:02.638Z,5.00
2018-07-04T16:47:42.498Z,4.97
2018-07-04T16:50:22.352Z,5.27
2018-07-04T16:53:02.388Z,5.60
2018-07-04T16:55:42.218Z,4.20
2018-07-04T16:58:22.147Z,4.30
2018-07-04T17:01:02.069Z,3.90
2018-07-04T17:03:42.077Z,4.70
2018-07-04T17:06:22.165Z,5.37
2018-07-04T17:09:02.193Z,3.60
2018-07-04T17:11:42.088Z,3.80
2018-07-04T17:14:21.948Z,4.37
2018-07-04T17:17:02.262Z,4.53
2018-07-04T17:19:42.397Z,5.30
2018-07-04T17:22:22.124Z,4.97
2018-07-04T17:25:01.916Z,4.90
2018-07-04T17:27:41.951Z,4.80
2018-07-04T17:30:21.837Z,4.20
2018-07-04T17:33:01.690Z,4.43
2018-07-04T17:35:41.550Z,4.93
2018-07-04T17:38:21.231Z,4.80
2018-07-04T17:41:01.478Z,4.33
2018-07-04T17:43:41.249Z,5.00
2018-07-04T17:46:21.117Z,4.80
2018-07-04T17:49:01.208Z,4.40
2018-07-04T17:51:41.047Z,5.33
2018-07-04T17:54:20.894Z,4.70
2018-07-04T17:57:00.833Z,4.33
2018-07-04T17:59:40.774Z,4.50
2018-07-04T18:02:20.800Z,5.10
2018-07-04T18:05:00.842Z,4.30
2018-07-04T18:07:40.594Z,5.07
2018-07-04T18:10:20.395Z,5.30
2018-07-04T18:12:54.320Z,5.70
2018-07-04T18:15:34.328Z,5.40
2018-07-04T18:18:14.285Z,4.43
2018-07-04T18:20:54.084Z,5.67
2018-07-04T18:23:33.938Z,4.40
2018-07-04T18:26:13.940Z,4.60
2018-07-04T18:28:53.834Z,5.10
2018-07-04T18:31:33.575Z,5.87
2018-07-04T18:34:13.543Z,5.33
2018-07-04T18:36:53.535Z,5.90
2018-07-04T18:39:33.171Z,4.97
2018-07-04T18:42:13.233Z,5.00
2018-07-04T18:44:53.022Z,4.50
2018-07-04T18:47:33.101Z,4.00
2018-07-04T18:50:13.128Z,3.33
2018-07-04T18:52:53.212Z,3.60
2018-07-04T18:55:33.144Z,4.20
2018-07-04T18:58:13.842Z,4.40
2018-07-04T19:00:53.649Z,3.50
2018-07-04T19:03:33.486Z,3.83
2018-07-04T19:06:13.444Z,2.93
2018-07-04T19:08:53.288Z,3.53
2018-07-04T19:11:33.247Z,4.37
2018-07-04T19:14:13.191Z,3.93
2018-07-04T19:16:52.989Z,3.40
2018-07-04T19:19:32.516Z,3.27
2018-07-04T19:22:12.443Z,3.47
2018-07-04T19:24:52.212Z,4.43
2018-07-04T19:27:32.092Z,4.50
2018-07-04T19:30:11.919Z,3.10
2018-07-04T19:32:52.786Z,3.40
2018-07-04T19:35:32.676Z,2.87
2018-07-04T19:38:12.551Z,3.10
2018-07-04T19:40:52.607Z,2.53
2018-07-04T19:43:32.340Z,3.10
2018-07-04T19:46:12.286Z,3.07
2018-07-04T19:48:52.173Z,2.80
2018-07-04T19:51:32.084Z,3.70
2018-07-04T19:54:13.292Z,3.77
2018-07-04T19:56:53.206Z,2.70
2018-07-04T19:59:33.066Z,2.87
2018-07-04T20:02:12.878Z,4.03
2018-07-04T20:04:52.758Z,2.80
2018-07-04T20:07:32.809Z,3.00
2018-07-04T20:10:12.824Z,2.70
2018-07-04T20:12:52.839Z,3.40
2018-07-04T20:15:32.984Z,3.43
2018-07-04T20:18:12.787Z,3.00
2018-07-04T20:20:52.607Z,3.00
2018-07-04T20:23:32.447Z,3.23
2018-07-04T20:26:12.352Z,2.83
2018-07-04T20:28:52.293Z,3.77
2018-07-04T20:31:32.051Z,2.70
2018-07-04T20:34:11.978Z,2.57
2018-07-04T20:36:51.809Z,2.57
2018-07-04T20:39:33.307Z,2.40
2018-07-04T20:42:13.309Z,4.10
2018-07-04T20:44:53.260Z,3.33
2018-07-04T20:47:33.342Z,2.33
2018-07-04T20:50:12.942Z,3.00
2018-07-04T20:52:52.908Z,3.17
2018-07-04T20:55:32.802Z,3.30
2018-07-04T20:58:12.515Z,2.70
2018-07-04T21:00:52.339Z,2.60
2018-07-04T22:28:41.660Z,3.47
2018-07-04T22:31:22.322Z,3.00
2018-07-04T22:34:02.220Z,2.60
2018-07-04T22:36:42.124Z,3.30
2018-07-04T22:39:21.893Z,2.77
2018-07-04T22:42:01.812Z,3.00
2018-07-04T22:44:41.642Z,2.60
2018-07-04T22:47:21.506Z,2.93
2018-07-04T22:50:01.287Z,2.87
2018-07-04T22:52:40.931Z,2.80
2018-07-04T22:55:20.829Z,2.30
2018-07-04T22:58:00.802Z,2.67
2018-07-04T23:00:40.694Z,2.30
2018-07-04T23:03:20.561Z,2.90
2018-07-04T23:06:00.325Z,2.60
2018-07-04T23:08:40.129Z,2.23
2018-07-04T23:11:20.029Z,4.67
2018-07-04T23:13:59.987Z,3.13
2018-07-04T23:16:40.350Z,2.77
2018-07-04T23:19:20.118Z,3.50
2018-07-04T23:22:00.001Z,3.07
2018-07-04T23:24:39.993Z,2.30
2018-07-04T23:27:19.678Z,2.63
2018-07-04T23:29:59.578Z,3.20
2018-07-04T23:32:39.530Z,2.93
2018-07-04T23:35:19.448Z,2.50
2018-07-04T23:37:59.189Z,2.40
2018-07-04T23:40:38.821Z,2.57
2018-07-04T23:43:18.720Z,2.50
2018-07-04T23:45:58.716Z,2.67
2018-07-04T23:48:38.446Z,2.80
2018-07-04T23:51:18.938Z,2.73
2018-07-04T23:53:58.745Z,2.50
2018-07-04T23:56:38.600Z,2.87
2018-07-04T23:59:18.502Z,2.90
